North Augusta, South Carolina
Current Conditions -  °F | °C
As of 5:53 PM on Tuesday 25 Nov 2014 (Local Time) from KDNL Reporting Station
Light Rain Light Rain  
Wind Chill: 54°   Ceiling: 10000
Heat Index: 54°   Visibility: 10mi
Dew Point: 51°   Wind: 6mph
Humidity: 90%   Direction: 360°N
Pressure: 30.02"   Gusts: NA
Location:  33.5°N, 81.97°W
Report Text: KDNL 252253Z AUTO 36005KT 10SM -RA OVC100 12/11 A3002 RMK AO2 SLP164 P0000 T01220106
Loading
Personal Weather Stations






























Interactive Weather Map New forecast layout! Learn more

10-Day Weather Forecast

Advertisements
Track Severe Weather on mobile